createdAt,value
2022-12-18T00:09:15.486Z,98120.94
2022-12-18T00:19:19.433Z,98135.48
2022-12-18T00:29:23.401Z,98150.79
2022-12-18T00:39:27.393Z,98153.80
2022-12-18T00:49:31.689Z,98177.92
2022-12-18T00:59:35.954Z,98191.00
2022-12-18T01:09:39.695Z,98199.84
2022-12-18T01:19:43.436Z,98208.45
2022-12-18T01:29:47.780Z,98215.98
2022-12-18T01:39:51.536Z,98221.16
2022-12-18T01:49:59.942Z,98230.81
2022-12-18T02:00:12.565Z,98241.04
2022-12-18T02:10:30.698Z,98255.69
2022-12-18T02:21:17.309Z,98273.35
2022-12-18T02:31:29.106Z,98284.95
2022-12-18T02:41:33.399Z,98297.40
2022-12-18T02:52:04.916Z,98306.76
2022-12-18T03:02:17.773Z,98314.84
2022-12-18T03:12:49.299Z,98329.70
2022-12-18T03:22:58.971Z,98349.79
2022-12-18T03:33:21.073Z,98356.84
2022-12-18T03:43:45.352Z,98363.77
2022-12-18T03:54:01.719Z,98374.23
2022-12-18T04:04:11.587Z,98386.53
2022-12-18T04:14:18.277Z,98385.19
2022-12-18T04:24:25.874Z,98407.61
2022-12-18T04:34:39.763Z,98419.85
2022-12-18T04:44:44.554Z,98418.02
2022-12-18T04:54:49.030Z,98437.30
2022-12-18T05:04:52.794Z,98450.48
2022-12-18T05:14:56.664Z,98460.52
2022-12-18T05:25:01.253Z,98465.77
2022-12-18T05:35:06.436Z,98469.61
2022-12-18T05:45:10.857Z,98484.00
2022-12-18T05:55:14.610Z,98498.17
2022-12-18T06:05:18.876Z,98500.27
2022-12-18T06:15:22.865Z,98507.93
2022-12-18T06:25:27.474Z,98523.99
2022-12-18T06:35:31.154Z,98534.99
2022-12-18T06:45:35.481Z,98549.05
2022-12-18T06:55:39.233Z,98556.30
2022-12-18T07:05:43.806Z,98571.72
2022-12-18T07:15:47.611Z,98582.56
2022-12-18T07:25:51.328Z,98591.34
2022-12-18T07:35:55.239Z,98614.10
2022-12-18T07:45:59.024Z,98628.35
2022-12-18T07:56:27.618Z,98635.23
2022-12-18T08:06:32.504Z,98627.30
2022-12-18T08:16:36.668Z,98628.20
2022-12-18T08:26:41.106Z,98636.37
2022-12-18T08:36:44.902Z,98637.75
2022-12-18T08:46:48.929Z,98641.41
2022-12-18T08:56:53.637Z,98641.73
2022-12-18T09:06:57.988Z,98660.17
2022-12-18T09:17:02.433Z,98663.50
2022-12-18T09:27:06.870Z,98671.60
2022-12-18T09:37:11.403Z,98680.81
2022-12-18T09:47:37.097Z,98677.56
2022-12-18T09:57:47.127Z,98676.52
2022-12-18T10:08:01.005Z,98676.29
2022-12-18T10:18:25.767Z,98678.52
2022-12-18T10:28:32.501Z,98680.95
2022-12-18T10:38:36.764Z,98681.02
2022-12-18T10:48:41.701Z,98679.30
2022-12-18T10:58:58.028Z,98668.27
2022-12-18T11:09:13.268Z,98653.89
2022-12-18T11:19:42.496Z,98650.43
2022-12-18T11:29:47.284Z,98642.77
2022-12-18T11:39:57.291Z,98633.44
2022-12-18T11:50:04.009Z,98637.66
2022-12-18T12:00:18.147Z,98642.04
2022-12-18T12:10:32.433Z,98653.58
2022-12-18T12:20:55.546Z,98666.26
2022-12-18T12:31:31.677Z,98670.16
2022-12-18T12:41:57.304Z,98670.19
2022-12-18T12:52:12.548Z,98680.15
2022-12-18T13:02:48.022Z,98703.31
2022-12-18T13:12:59.193Z,98720.61
2022-12-18T13:23:20.831Z,98738.29
2022-12-18T13:33:26.446Z,98735.64
2022-12-18T13:43:45.026Z,98736.94
2022-12-18T13:54:02.250Z,98744.59
2022-12-18T14:04:18.903Z,98760.62
2022-12-18T14:14:26.890Z,98780.72
2022-12-18T14:24:36.167Z,98787.78
2022-12-18T14:34:40.428Z,98804.77
2022-12-18T14:45:12.840Z,98799.05
2022-12-18T14:55:17.768Z,98810.83
2022-12-18T15:05:32.944Z,98813.85
2022-12-18T15:15:37.890Z,98822.96
2022-12-18T15:25:47.192Z,98828.92
2022-12-18T15:36:11.171Z,98829.63
2022-12-18T15:46:23.100Z,98837.55
2022-12-18T15:56:49.501Z,98857.60
2022-12-18T16:07:14.394Z,98864.66
2022-12-18T16:17:21.723Z,98878.30
2022-12-18T16:27:26.892Z,98886.84
2022-12-18T16:37:33.235Z,98894.98
2022-12-18T16:47:40.802Z,98902.44
2022-12-18T16:57:47.374Z,98914.25
2022-12-18T17:07:54.067Z,98926.63
2022-12-18T17:18:02.534Z,98933.75
2022-12-18T17:28:11.355Z,98940.61
2022-12-18T17:38:17.965Z,98926.15
2022-12-18T17:48:23.737Z,98913.05
2022-12-18T17:58:30.679Z,98898.74
2022-12-18T18:08:38.140Z,98894.08
2022-12-18T18:18:44.991Z,98895.16
2022-12-18T18:28:51.212Z,98902.66
2022-12-18T18:38:56.685Z,98912.83
2022-12-18T18:49:02.110Z,98929.05
2022-12-18T18:59:07.612Z,98931.91
2022-12-18T19:09:14.026Z,98929.32
2022-12-18T19:19:41.755Z,98934.73
2022-12-18T19:30:07.329Z,98934.54
2022-12-18T19:40:13.399Z,98950.42
2022-12-18T19:50:21.094Z,98957.28
2022-12-18T20:00:26.478Z,98974.11
2022-12-18T20:10:33.288Z,98986.51
2022-12-18T20:20:39.022Z,98996.13
2022-12-18T20:30:46.281Z,98993.23
2022-12-18T20:40:54.641Z,99006.45
2022-12-18T20:51:21.270Z,99009.77
2022-12-18T21:01:29.681Z,98990.85
2022-12-18T21:11:53.226Z,98987.15
2022-12-18T21:21:57.921Z,98986.52
2022-12-18T21:32:03.118Z,98981.23
2022-12-18T21:42:26.179Z,98971.66
2022-12-18T21:52:31.961Z,98955.33
2022-12-18T22:02:36.766Z,98954.34
2022-12-18T22:12:44.396Z,98956.16
2022-12-18T22:22:52.300Z,98954.90
2022-12-18T22:32:56.306Z,98960.10
2022-12-18T22:43:00.103Z,98958.54
2022-12-18T22:53:04.271Z,98944.23
2022-12-18T23:03:10.304Z,98939.50
2022-12-18T23:13:14.765Z,98936.07
2022-12-18T23:23:18.922Z,98941.95
2022-12-18T23:33:23.407Z,98953.02
2022-12-18T23:43:28.204Z,98952.98
2022-12-18T23:53:32.372Z,98963.54
